Time;durP1;ratioP1;P1;durP2;ratioP2;P2;SDS_P1;SDS_P2;PMS_P1;PMS_P2;Temp;Humidity;BMP_temperature;BMP_pressure;BME280_temperature;BME280_humidity;BME280_pressure;Samples;Min_cycle;Max_cycle;Signal;HPM_P1;HPM_P2
2023/08/08 00:02:09;;;;;;;2.43;2.00;;;;;;;13.56;100.00;100542.25;4992918;28;20231;-74
2023/08/08 00:04:35;;;;;;;2.30;2.10;;;;;;;13.54;100.00;100536.91;4993219;28;20227;-72
2023/08/08 00:07:02;;;;;;;3.93;2.03;;;;;;;13.63;100.00;100544.97;4993194;28;20212;-70
2023/08/08 00:09:28;;;;;;;2.93;2.40;;;;;;;13.59;100.00;100542.25;4987414;28;20307;-73
2023/08/08 00:11:57;;;;;;;2.93;2.10;;;;;;;13.48;100.00;100535.13;4992766;28;20292;-72
2023/08/08 00:14:24;;;;;;;3.63;2.43;;;;;;;13.41;100.00;100538.66;4975838;28;20232;-72
2023/08/08 00:16:51;;;;;;;5.43;2.10;;;;;;;13.45;100.00;100539.56;4993362;28;20213;-72
2023/08/08 00:19:17;;;;;;;3.03;2.40;;;;;;;13.42;100.00;100537.75;4988751;28;20615;-72
2023/08/08 00:21:43;;;;;;;5.17;2.60;;;;;;;13.48;100.00;100539.56;4993063;28;20221;-72
2023/08/08 00:24:10;;;;;;;4.20;2.30;;;;;;;13.55;100.00;100535.16;4993108;28;20216;-71
2023/08/08 00:26:36;;;;;;;3.30;2.40;;;;;;;13.51;100.00;100530.69;4992813;28;20211;-72
2023/08/08 00:29:02;;;;;;;2.90;2.10;;;;;;;13.56;100.00;100542.25;4983133;28;20232;-71
2023/08/08 00:31:29;;;;;;;3.37;2.40;;;;;;;13.54;100.00;100538.69;4991256;28;20284;-71
2023/08/08 00:33:55;;;;;;;3.43;2.70;;;;;;;13.46;100.00;100536.88;4992506;28;20216;-71
2023/08/08 00:36:22;;;;;;;5.53;2.30;;;;;;;13.48;100.00;100540.44;4992649;28;20204;-72
2023/08/08 00:38:49;;;;;;;3.23;2.10;;;;;;;13.39;100.00;100535.09;4974279;28;20263;-70
2023/08/08 00:41:15;;;;;;;2.57;2.37;;;;;;;13.36;100.00;100531.53;4987560;28;20490;-72
2023/08/08 00:43:43;;;;;;;4.37;2.30;;;;;;;13.37;100.00;100522.66;4992203;28;20212;-72
2023/08/08 00:46:10;;;;;;;4.50;2.70;;;;;;;13.36;100.00;100527.09;4992830;28;20300;-71
2023/08/08 00:48:37;;;;;;;2.97;2.43;;;;;;;13.45;100.00;100524.47;4992699;28;20205;-71
2023/08/08 00:51:03;;;;;;;3.83;2.60;;;;;;;13.41;100.00;100517.38;4977493;28;20199;-71
2023/08/08 00:53:31;;;;;;;3.17;2.30;;;;;;;13.28;100.00;100512.00;4976710;28;20703;-72
2023/08/08 00:55:59;;;;;;;3.20;2.10;;;;;;;13.11;100.00;100515.41;4992673;28;20604;-72
2023/08/08 00:58:26;;;;;;;2.70;2.23;;;;;;;13.03;100.00;100511.84;4984532;28;20214;-73
2023/08/08 01:00:54;;;;;;;2.30;2.10;;;;;;;12.90;100.00;100514.44;4992049;28;20205;-73
2023/08/08 01:03:21;;;;;;;2.50;2.30;;;;;;;12.83;100.00;100508.19;4991832;28;20197;-71
2023/08/08 01:05:57;;;;;;;3.00;2.23;;;;;;;12.80;100.00;100508.13;4992495;28;20209;-72
2023/08/08 01:08:31;;;;;;;3.37;2.00;;;;;;;12.77;100.00;100503.69;4992094;28;20602;-71
2023/08/08 01:10:58;;;;;;;2.50;2.30;;;;;;;12.72;100.00;100504.56;4990572;28;20212;-71
2023/08/08 01:13:27;;;;;;;3.30;2.37;;;;;;;12.67;100.00;100512.50;4987940;28;20205;-72
2023/08/08 01:15:57;;;;;;;2.37;2.17;;;;;;;12.68;100.00;100505.41;4992422;28;20561;-73
2023/08/08 01:18:24;;;;;;;3.37;2.70;;;;;;;12.76;100.00;100516.97;4992238;28;20291;-72
2023/08/08 01:20:52;;;;;;;3.50;2.60;;;;;;;12.70;100.00;100512.50;4989389;28;20244;-74
2023/08/08 01:23:26;;;;;;;6.63;2.40;;;;;;;12.72;100.00;100512.53;4986654;28;20221;-73
2023/08/08 01:25:53;;;;;;;3.37;2.40;;;;;;;12.63;100.00;100510.69;4992455;28;20232;-73
2023/08/08 01:28:23;;;;;;;3.03;2.30;;;;;;;12.47;100.00;100509.72;4981815;28;20205;-75
2023/08/08 01:30:50;;;;;;;3.00;2.53;;;;;;;12.44;100.00;100517.66;4969236;28;20226;-74
2023/08/08 01:33:17;;;;;;;2.80;2.30;;;;;;;12.31;100.00;100513.09;4989477;28;20200;-74
2023/08/08 01:35:46;;;;;;;2.87;2.50;;;;;;;12.17;100.00;100513.00;4986836;28;20215;-75
2023/08/08 01:38:33;;;;;;;3.37;2.40;;;;;;;12.15;100.00;100508.56;4986222;28;20692;-75
2023/08/08 01:41:00;;;;;;;4.10;2.50;;;;;;;12.01;100.00;100505.78;4977981;28;20269;-79
2023/08/08 01:43:28;;;;;;;2.80;2.20;;;;;;;11.86;100.00;100514.47;4994857;28;20705;-75
2023/08/08 01:45:55;;;;;;;3.37;2.50;;;;;;;11.83;100.00;100511.78;4985821;28;20654;-78
2023/08/08 01:48:21;;;;;;;2.80;2.40;;;;;;;11.76;100.00;100520.53;4991677;28;20204;-79
2023/08/08 01:50:48;;;;;;;2.80;2.30;;;;;;;11.72;100.00;100517.81;4983422;28;20728;-79
2023/08/08 01:53:14;;;;;;;5.00;2.50;;;;;;;11.71;100.00;100510.75;4983137;28;20197;-79
2023/08/08 01:55:40;;;;;;;5.03;3.00;;;;;;;11.66;100.00;100516.00;4991265;28;20669;-80
2023/08/08 01:58:07;;;;;;;4.20;2.77;;;;;;;11.60;100.00;100513.25;4991612;28;20214;-80
2023/08/08 02:00:33;;;;;;;4.97;2.80;;;;;;;11.59;100.00;100509.72;4990848;28;20232;-78
2023/08/08 02:03:00;;;;;;;3.80;2.70;;;;;;;11.57;100.00;100502.59;4986485;28;20647;-80
2023/08/08 02:05:27;;;;;;;4.43;2.60;;;;;;;11.66;100.00;100497.44;4989217;28;20201;-78
2023/08/08 02:07:54;;;;;;;3.20;2.50;;;;;;;11.52;100.00;100491.94;4991269;28;20627;-80
2023/08/08 02:10:20;;;;;;;5.33;2.73;;;;;;;11.52;100.00;100494.59;4973779;28;20233;-81
2023/08/08 02:12:46;;;;;;;3.47;2.73;;;;;;;11.54;100.00;100499.91;4987012;28;20204;-79
2023/08/08 02:15:13;;;;;;;4.20;2.77;;;;;;;11.50;100.00;100495.47;4993116;28;20206;-79
2023/08/08 02:17:39;;;;;;;3.73;2.87;;;;;;;11.38;100.00;100495.34;4973468;28;20239;-80
2023/08/08 02:20:06;;;;;;;3.33;2.80;;;;;;;11.34;100.00;100493.50;4990607;28;20216;-77
2023/08/08 02:22:34;;;;;;;3.57;2.90;;;;;;;11.22;100.00;100497.81;4989893;28;20229;-78
2023/08/08 02:25:00;;;;;;;4.80;3.00;;;;;;;11.14;100.00;100499.44;4983128;28;20203;-77
2023/08/08 02:27:27;;;;;;;4.73;2.80;;;;;;;11.11;100.00;100488.81;4990342;28;20206;-78
2023/08/08 02:29:53;;;;;;;2.90;2.53;;;;;;;11.01;100.00;100493.97;4990667;28;20218;-79
2023/08/08 02:32:22;;;;;;;3.63;2.83;;;;;;;10.91;100.00;100485.91;4990423;28;20203;-77
2023/08/08 02:34:48;;;;;;;3.27;2.53;;;;;;;10.84;100.00;100485.81;4982732;28;20587;-77
2023/08/08 02:37:15;;;;;;;4.43;2.50;;;;;;;10.73;100.00;100490.03;4990564;28;20204;-75
2023/08/08 02:39:43;;;;;;;4.13;2.47;;;;;;;10.72;100.00;100491.81;4990374;28;20236;-73
2023/08/08 02:42:10;;;;;;;3.77;2.77;;;;;;;10.70;100.00;100482.06;4990369;28;20223;-71
2023/08/08 02:44:36;;;;;;;2.90;2.60;;;;;;;10.63;100.00;100487.28;4988782;28;20205;-71
2023/08/08 02:47:03;;;;;;;2.90;2.60;;;;;;;10.68;100.00;100490.88;4989312;28;20384;-73
2023/08/08 02:49:29;;;;;;;5.70;3.07;;;;;;;10.69;100.00;100478.53;4990043;28;20302;-71
2023/08/08 02:51:56;;;;;;;3.70;2.70;;;;;;;10.67;100.00;100485.56;4990490;28;20202;-71
2023/08/08 02:54:23;;;;;;;4.23;2.80;;;;;;;10.61;100.00;100485.47;4989437;28;20205;-71
2023/08/08 02:56:49;;;;;;;4.10;2.80;;;;;;;10.48;100.00;100495.00;4986826;28;20205;-71
2023/08/08 02:59:16;;;;;;;2.97;2.53;;;;;;;10.41;100.00;100495.78;4989984;28;20227;-70
2023/08/08 03:01:42;;;;;;;3.27;2.67;;;;;;;10.38;100.00;100493.06;4990015;28;20217;-70
2023/08/08 03:04:11;;;;;;;3.77;2.83;;;;;;;10.50;100.00;100484.44;4985514;28;20208;-70
2023/08/08 03:06:37;;;;;;;4.13;2.80;;;;;;;10.41;100.00;100481.66;4969926;28;20205;-70
2023/08/08 03:09:05;;;;;;;6.37;2.83;;;;;;;10.34;100.00;100473.59;4990301;28;20240;-70
2023/08/08 03:11:31;;;;;;;3.43;2.73;;;;;;;10.35;100.00;100480.66;4990151;28;20283;-71
2023/08/08 03:13:58;;;;;;;3.73;2.90;;;;;;;10.33;100.00;100484.16;4990367;28;20211;-70
2023/08/08 03:16:24;;;;;;;4.77;2.80;;;;;;;10.25;100.00;100478.75;4987127;28;20289;-70
2023/08/08 03:18:51;;;;;;;3.87;2.60;;;;;;;10.27;100.00;100489.34;4990017;28;20248;-69
2023/08/08 03:21:17;;;;;;;3.30;2.60;;;;;;;10.24;100.00;100478.72;4990277;28;20202;-69
2023/08/08 03:23:44;;;;;;;3.50;2.60;;;;;;;10.23;100.00;100479.59;4989914;28;20269;-68
2023/08/08 03:26:10;;;;;;;3.67;2.60;;;;;;;10.19;100.00;100481.25;4987682;28;20644;-71
2023/08/08 03:28:37;;;;;;;2.77;2.47;;;;;;;10.12;100.00;100478.50;4988057;28;20239;-71
2023/08/08 03:31:03;;;;;;;3.13;2.73;;;;;;;10.14;100.00;100485.59;4990261;28;20202;-71
2023/08/08 03:33:30;;;;;;;6.70;2.90;;;;;;;10.23;100.00;100485.78;4990204;28;20236;-71
2023/08/08 03:35:56;;;;;;;4.03;2.60;;;;;;;10.24;100.00;100495.50;4990289;28;20264;-71
2023/08/08 03:38:23;;;;;;;4.33;3.00;;;;;;;10.22;100.00;100494.56;4985886;28;20228;-71
2023/08/08 03:40:50;;;;;;;3.40;2.70;;;;;;;10.21;100.00;100486.59;4989657;28;20200;-70
2023/08/08 03:43:17;;;;;;;3.97;2.73;;;;;;;10.18;100.00;100491.81;4972395;28;20213;-69
2023/08/08 03:45:44;;;;;;;4.13;2.67;;;;;;;10.11;100.00;100484.66;4972176;28;20215;-68
2023/08/08 03:48:11;;;;;;;3.83;2.70;;;;;;;10.10;100.00;100493.47;4987212;28;20200;-71
2023/08/08 03:50:37;;;;;;;3.93;2.70;;;;;;;10.07;100.00;100489.00;4991484;28;20221;-71
2023/08/08 03:53:04;;;;;;;2.83;2.50;;;;;;;10.06;100.00;100484.56;4989891;28;20205;-71
2023/08/08 03:55:32;;;;;;;3.70;2.60;;;;;;;10.03;100.00;100482.78;4989961;28;20628;-71
2023/08/08 03:57:58;;;;;;;3.57;2.80;;;;;;;10.00;100.00;100493.28;4987250;28;20206;-70
2023/08/08 04:00:25;;;;;;;4.50;2.70;;;;;;;10.01;100.00;100483.63;5010404;23;20713;-70
2023/08/08 04:02:51;;;;;;;4.43;2.70;;;;;;;9.94;100.00;100472.00;4991297;28;20213;-72
2023/08/08 04:05:18;;;;;;;3.67;2.80;;;;;;;9.97;100.00;100484.41;4993903;28;20201;-72
2023/08/08 04:07:44;;;;;;;3.30;3.00;;;;;;;9.95;100.00;100481.72;4992772;28;20765;-71
2023/08/08 04:10:11;;;;;;;5.10;3.03;;;;;;;9.96;100.00;100467.63;4991006;28;20227;-71
2023/08/08 04:12:37;;;;;;;5.43;2.67;;;;;;;9.98;100.00;100487.06;4973981;28;20202;-70
2023/08/08 04:15:04;;;;;;;4.97;3.10;;;;;;;9.97;100.00;100481.75;4992466;28;20272;-75
2023/08/08 04:17:31;;;;;;;4.87;2.93;;;;;;;9.98;100.00;100478.25;4985739;28;20208;-71
2023/08/08 04:19:57;;;;;;;3.20;2.77;;;;;;;9.98;100.00;100476.47;4984275;28;20228;-71
2023/08/08 04:22:24;;;;;;;4.30;2.90;;;;;;;10.01;100.00;100478.31;4992842;28;20232;-70
2023/08/08 04:24:50;;;;;;;3.70;2.80;;;;;;;9.99;100.00;100485.31;4974217;28;20239;-70
2023/08/08 04:27:17;;;;;;;3.80;2.93;;;;;;;9.97;100.00;100484.41;4974183;28;20302;-69
2023/08/08 04:29:43;;;;;;;4.03;3.10;;;;;;;9.98;100.00;100487.06;4975111;28;20235;-69
2023/08/08 04:32:09;;;;;;;4.00;3.03;;;;;;;10.02;100.00;100496.88;4992520;28;20201;-69
2023/08/08 04:34:36;;;;;;;4.87;3.20;;;;;;;10.00;100.00;100498.56;4972232;28;20202;-69
2023/08/08 04:37:02;;;;;;;4.37;3.10;;;;;;;10.05;100.00;100490.72;4980263;28;20198;-69
2023/08/08 04:39:29;;;;;;;3.53;3.10;;;;;;;10.11;100.00;100492.59;4972819;28;20247;-71
2023/08/08 04:41:55;;;;;;;3.67;3.00;;;;;;;10.13;100.00;100491.75;4986992;28;20296;-71
2023/08/08 04:44:22;;;;;;;4.37;3.10;;;;;;;10.12;100.00;100487.31;4981471;28;20264;-71
2023/08/08 04:46:48;;;;;;;3.83;3.10;;;;;;;10.11;100.00;100482.91;4973109;28;20209;-70
2023/08/08 04:49:15;;;;;;;8.10;3.60;;;;;;;10.26;100.00;100483.16;4973118;28;20704;-71
2023/08/08 04:51:41;;;;;;;4.50;3.47;;;;;;;10.39;100.00;100475.41;4984543;28;20216;-70
2023/08/08 04:54:07;;;;;;;6.17;3.53;;;;;;;10.37;100.00;100485.97;4987109;28;20216;-70
2023/08/08 04:56:34;;;;;;;4.70;3.40;;;;;;;10.39;100.00;100476.28;4972932;28;20202;-70
2023/08/08 04:59:00;;;;;;;5.73;3.10;;;;;;;10.54;100.00;100480.97;4972448;28;20209;-72
2023/08/08 05:01:27;;;;;;;4.17;3.50;;;;;;;10.59;100.00;100477.50;4978963;28;20580;-71
2023/08/08 05:03:53;;;;;;;4.03;3.20;;;;;;;10.64;100.00;100472.28;4974776;28;20230;-73
2023/08/08 05:06:22;;;;;;;4.10;3.33;;;;;;;10.70;100.00;100474.13;4975234;28;20215;-72
2023/08/08 05:08:51;;;;;;;4.00;3.30;;;;;;;10.85;100.00;100475.25;4991940;28;20350;-75
2023/08/08 05:11:17;;;;;;;5.43;3.27;;;;;;;10.87;100.00;100480.56;4974974;28;20229;-74
2023/08/08 05:13:44;;;;;;;4.93;3.10;;;;;;;11.07;100.00;100483.44;4990648;28;20216;-77
2023/08/08 05:16:10;;;;;;;3.57;3.00;;;;;;;11.11;100.00;100482.63;4978589;28;20205;-74
2023/08/08 05:18:36;;;;;;;5.00;3.20;;;;;;;11.17;100.00;100475.63;4971422;28;20229;-73
2023/08/08 05:21:03;;;;;;;5.97;3.53;;;;;;;11.35;100.00;100474.09;4972854;28;20296;-73
2023/08/08 05:23:29;;;;;;;4.43;2.97;;;;;;;11.42;100.00;100478.59;4972937;28;20227;-75
2023/08/08 05:25:56;;;;;;;6.90;3.17;;;;;;;11.43;100.00;100478.59;4980462;28;20201;-75
2023/08/08 05:28:23;;;;;;;4.60;2.80;;;;;;;11.41;100.00;100475.03;4991762;28;20601;-75
2023/08/08 05:30:49;;;;;;;4.13;2.73;;;;;;;11.49;100.00;100483.06;4967605;28;20243;-76
2023/08/08 05:33:16;;;;;;;3.73;2.90;;;;;;;11.61;100.00;100480.56;4998095;28;20203;-77
2023/08/08 05:35:42;;;;;;;3.67;2.70;;;;;;;11.72;100.00;100478.03;4993885;28;20211;-76
2023/08/08 05:38:09;;;;;;;3.17;2.60;;;;;;;11.79;100.00;100474.59;4998022;28;20205;-77
2023/08/08 05:40:36;;;;;;;5.77;3.07;;;;;;;11.90;100.00;100480.88;4991194;28;20270;-76
2023/08/08 05:43:03;;;;;;;3.30;2.77;;;;;;;12.01;100.00;100475.66;4995695;28;20334;-76
2023/08/08 05:45:29;;;;;;;4.50;2.60;;;;;;;12.15;100.00;100476.69;5010980;28;20198;-76
2023/08/08 05:47:56;;;;;;;4.07;3.10;;;;;;;12.20;100.00;100483.81;4991728;28;20210;-78
2023/08/08 05:50:23;;;;;;;4.97;3.00;;;;;;;12.34;100.00;100469.75;4991149;28;20223;-78
2023/08/08 05:52:49;;;;;;;4.57;3.17;;;;;;;13.10;100.00;100473.75;4990392;28;20595;-73
2023/08/08 05:55:15;;;;;;;3.67;2.93;;;;;;;13.95;100.00;100473.13;5010851;28;20212;-73
2023/08/08 05:57:42;;;;;;;5.53;2.60;;;;;;;13.72;100.00;100485.53;5001463;28;20282;-73
2023/08/08 06:00:11;;;;;;;5.77;2.60;;;;;;;13.52;100.00;100476.59;4990742;28;20241;-72
2023/08/08 06:02:37;;;;;;;2.40;2.00;;;;;;;13.29;100.00;100479.19;4990872;28;20319;-71
2023/08/08 06:05:05;;;;;;;2.23;2.03;;;;;;;13.20;100.00;100471.16;5005410;28;20226;-70
2023/08/08 06:07:31;;;;;;;4.93;2.13;;;;;;;13.06;100.00;100468.41;5002105;28;20570;-70
2023/08/08 06:09:58;;;;;;;2.60;1.97;;;;;;;13.11;100.00;100472.88;4990816;28;20221;-72
2023/08/08 06:12:24;;;;;;;4.33;2.07;;;;;;;13.14;100.00;100478.19;4979599;28;20208;-71
2023/08/08 06:14:50;;;;;;;2.70;2.00;;;;;;;13.27;100.00;100475.66;4999981;28;20679;-71
2023/08/08 06:17:17;;;;;;;2.30;1.57;;;;;;;13.33;100.00;100473.00;5010695;28;20200;-69
2023/08/08 06:19:43;;;;;;;2.53;1.80;;;;;;;13.36;100.00;100475.66;4991906;28;20307;-69
2023/08/08 06:22:10;;;;;;;2.93;2.27;;;;;;;13.44;100.00;100471.25;4990597;28;20211;-70
2023/08/08 06:24:36;;;;;;;3.27;2.17;;;;;;;13.49;100.00;100478.38;4993614;28;20304;-68
2023/08/08 06:27:03;;;;;;;4.50;1.80;;;;;;;13.56;100.00;100463.31;4993019;28;20235;-69
2023/08/08 06:29:30;;;;;;;4.40;2.10;;;;;;;13.64;100.00;100464.22;4976996;28;20745;-70
2023/08/08 06:31:57;;;;;;;2.60;2.00;;;;;;;13.84;100.00;100466.03;4990604;28;20680;-68
2023/08/08 06:34:24;;;;;;;5.00;2.10;;;;;;;13.86;100.00;100465.13;4989659;28;20203;-68
2023/08/08 06:36:50;;;;;;;4.40;2.10;;;;;;;13.97;100.00;100459.81;5007336;28;20210;-69
2023/08/08 06:39:20;;;;;;;3.07;1.90;;;;;;;14.02;100.00;100460.75;4998528;28;20224;-69
2023/08/08 06:41:46;;;;;;;3.70;1.87;;;;;;;14.20;100.00;100457.16;4973652;28;20240;-69
2023/08/08 06:44:13;;;;;;;4.67;1.57;;;;;;;14.26;100.00;100451.84;4981437;28;20222;-70
2023/08/08 06:46:39;;;;;;;2.67;1.50;;;;;;;14.34;100.00;100463.38;5006098;28;20207;-70
2023/08/08 06:49:07;;;;;;;2.23;1.90;;;;;;;14.49;100.00;100457.19;5005629;28;20227;-70
2023/08/08 06:51:33;;;;;;;3.57;1.77;;;;;;;14.64;100.00;100455.38;4990366;28;20247;-70
2023/08/08 06:53:59;;;;;;;2.83;1.43;;;;;;;14.76;100.00;100462.44;4990083;28;20197;-68
2023/08/08 06:56:26;;;;;;;4.10;1.77;;;;;;;14.87;100.00;100460.66;4998237;28;20291;-68
2023/08/08 06:58:53;;;;;;;3.57;1.70;;;;;;;14.87;100.00;100455.34;4989203;28;20224;-70
2023/08/08 07:01:19;;;;;;;2.97;1.50;;;;;;;15.04;100.00;100460.59;4990659;28;20288;-70
2023/08/08 07:03:46;;;;;;;2.73;1.60;;;;;;;15.15;100.00;100465.88;4990072;28;20229;-70
2023/08/08 07:06:13;;;;;;;5.60;1.90;;;;;;;15.54;100.00;100468.34;5000423;28;20201;-69
2023/08/08 07:08:39;;;;;;;5.13;1.80;;;;;;;16.05;100.00;100460.06;5009310;28;20323;-69
2023/08/08 07:11:06;;;;;;;2.70;1.40;;;;;;;17.87;100.00;100454.44;4997375;28;20311;-69
2023/08/08 07:13:32;;;;;;;3.00;1.60;;;;;;;19.98;100.00;100454.78;4972573;28;20284;-67
2023/08/08 07:15:59;;;;;;;6.53;1.53;;;;;;;21.93;69.24;100450.28;4990259;28;20205;-68
2023/08/08 07:18:25;;;;;;;2.00;1.10;;;;;;;22.55;62.54;100450.94;5006534;28;20216;-69
2023/08/08 07:20:52;;;;;;;2.03;1.30;;;;;;;22.46;60.62;100446.75;4998507;28;20232;-68
2023/08/08 07:23:18;;;;;;;3.60;1.33;;;;;;;21.04;64.53;100441.28;4990070;28;20248;-67
2023/08/08 07:25:46;;;;;;;6.13;1.50;;;;;;;21.82;61.00;100454.22;4990031;28;20208;-68
2023/08/08 07:28:14;;;;;;;3.17;1.30;;;;;;;22.61;59.92;100450.72;5001484;28;20207;-70
2023/08/08 07:30:41;;;;;;;3.03;1.40;;;;;;;21.68;61.36;100448.38;4990736;28;20247;-68
2023/08/08 07:33:08;;;;;;;4.00;1.70;;;;;;;22.56;59.29;100439.19;4989803;28;20224;-69
2023/08/08 07:35:35;;;;;;;5.23;1.80;;;;;;;22.61;58.20;100442.59;4989576;28;20290;-68
2023/08/08 07:38:01;;;;;;;2.10;1.40;;;;;;;23.50;55.65;100433.94;4999142;28;20574;-69
2023/08/08 07:40:28;;;;;;;1.57;1.20;;;;;;;22.49;56.80;100434.94;5011145;28;20744;-69
2023/08/08 07:42:54;;;;;;;4.20;1.40;;;;;;;21.90;59.58;100430.56;5012836;28;20727;-69
2023/08/08 07:45:21;;;;;;;3.27;1.40;;;;;;;21.11;60.98;100440.19;4998859;28;20242;-69
2023/08/08 07:47:47;;;;;;;6.33;1.40;;;;;;;20.31;65.38;100431.56;4993406;28;20200;-68
2023/08/08 07:50:14;;;;;;;4.87;1.80;;;;;;;20.72;63.77;100442.19;4993058;28;20228;-68
2023/08/08 07:52:40;;;;;;;2.90;1.57;;;;;;;20.84;63.84;100436.50;5008434;28;20196;-69
2023/08/08 07:55:07;;;;;;;4.57;1.57;;;;;;;20.64;63.99;100427.13;5008865;28;20288;-69
2023/08/08 07:57:34;;;;;;;3.90;1.60;;;;;;;20.71;65.13;100432.34;4994210;28;20632;-68
2023/08/08 08:00:11;;;;;;;3.73;1.30;;;;;;;21.23;63.53;100432.69;4988997;28;20255;-69
2023/08/08 08:02:41;;;;;;;3.13;1.50;;;;;;;20.99;63.35;100432.47;5008571;28;20203;-69
2023/08/08 08:05:09;;;;;;;2.63;1.50;;;;;;;21.70;60.47;100427.66;5011259;28;20213;-69
2023/08/08 08:07:36;;;;;;;3.17;1.40;;;;;;;21.94;58.84;100425.97;4977636;28;20459;-69
2023/08/08 08:10:05;;;;;;;2.05;1.23;;;;;;;21.62;59.62;100431.53;4993922;28;20236;-70
2023/08/08 08:12:32;;;;;;;2.03;1.57;;;;;;;20.62;62.29;100431.69;5001000;28;20200;-69
2023/08/08 08:14:59;;;;;;;3.10;1.50;;;;;;;20.81;62.00;100437.47;4992321;28;20225;-69
2023/08/08 08:17:27;;;;;;;2.83;1.33;;;;;;;20.67;62.45;100431.56;4976070;28;20223;-67
2023/08/08 08:19:54;;;;;;;2.22;1.38;;;;;;;20.77;61.67;100435.75;4993118;28;20253;-68
2023/08/08 08:22:21;;;;;;;3.72;1.30;;;;;;;20.81;61.81;100432.06;4995258;28;20206;-69
2023/08/08 08:24:47;;;;;;;2.45;1.30;;;;;;;21.38;60.96;100431.34;5012163;28;20243;-68
2023/08/08 08:27:14;;;;;;;4.25;1.63;;;;;;;20.90;62.38;100428.25;4999219;28;20232;-69
2023/08/08 08:29:40;;;;;;;4.07;1.50;;;;;;;21.24;61.54;100428.19;4992510;28;20701;-69
2023/08/08 08:32:06;;;;;;;3.40;1.73;;;;;;;21.41;59.56;100424.97;5000970;28;20197;-69
2023/08/08 08:34:33;;;;;;;2.85;1.42;;;;;;;21.34;59.95;100426.09;5010128;28;20224;-69
2023/08/08 08:36:59;;;;;;;2.38;1.40;;;;;;;21.01;60.14;100422.53;4983770;28;20288;-67
2023/08/08 08:39:26;;;;;;;3.88;1.30;;;;;;;21.02;58.35;100413.53;4992831;28;20311;-69
2023/08/08 08:41:58;;;;;;;4.47;1.30;;;;;;;20.96;59.46;100425.38;4979401;28;20643;-69
2023/08/08 08:44:27;;;;;;;2.00;1.30;;;;;;;21.08;59.11;100419.63;5004216;28;20294;-69
2023/08/08 08:46:58;;;;;;;2.75;1.38;;;;;;;21.15;58.71;100425.69;5010429;28;20207;-69
2023/08/08 08:49:26;;;;;;;4.57;2.05;;;;;;;21.05;59.80;100430.47;5004901;28;20227;-69
2023/08/08 08:51:53;;;;;;;2.85;1.50;;;;;;;20.79;58.40;100414.16;4992245;28;20208;-69
2023/08/08 08:54:20;;;;;;;2.28;1.35;;;;;;;20.86;58.55;100424.75;4992483;28;20201;-69
2023/08/08 08:56:47;;;;;;;3.03;1.30;;;;;;;20.85;59.05;100425.69;4981550;28;20236;-69
2023/08/08 08:59:13;;;;;;;3.63;1.35;;;;;;;20.79;59.19;100428.50;4994101;28;20259;-69
2023/08/08 09:01:40;;;;;;;3.08;1.38;;;;;;;20.84;59.09;100425.72;4995070;28;20307;-69
2023/08/08 09:04:08;;;;;;;3.72;1.60;;;;;;;21.11;59.49;100424.91;4982593;28;20271;-69
2023/08/08 09:06:35;;;;;;;2.72;1.33;;;;;;;21.38;58.93;100431.34;4992145;28;20224;-69
2023/08/08 09:09:03;;;;;;;3.88;1.65;;;;;;;21.69;57.60;100417.81;4994095;28;20203;-70
2023/08/08 09:11:45;;;;;;;3.50;1.48;;;;;;;21.65;57.59;100421.53;5004284;28;20226;-70
2023/08/08 09:14:23;;;;;;;2.85;1.50;;;;;;;21.37;58.99;100423.31;5008478;28;20695;-69
2023/08/08 09:16:51;;;;;;;4.22;1.50;;;;;;;21.85;58.10;100437.06;5001667;28;20205;-68
2023/08/08 09:19:18;;;;;;;4.30;1.40;;;;;;;22.17;57.63;100420.72;4992440;28;20227;-70
2023/08/08 09:21:44;;;;;;;3.90;1.70;;;;;;;22.54;56.09;100424.00;4992917;28;20224;-69
2023/08/08 09:24:11;;;;;;;5.07;1.60;;;;;;;22.08;55.70;100426.44;5001520;28;20696;-69
2023/08/08 09:26:42;;;;;;;3.58;1.80;;;;;;;21.92;57.23;100419.75;4983406;28;20201;-69
2023/08/08 09:29:11;;;;;;;3.55;1.50;;;;;;;22.29;57.54;100418.53;4994306;28;20253;-69
2023/08/08 09:31:37;;;;;;;5.53;1.65;;;;;;;22.39;57.51;100428.09;4991577;28;20244;-68
2023/08/08 09:34:05;;;;;;;3.97;1.63;;;;;;;22.25;56.71;100424.97;4999968;28;20196;-70
2023/08/08 09:36:33;;;;;;;2.53;1.30;;;;;;;22.64;55.65;100418.19;5011499;28;20406;-70
2023/08/08 09:39:00;;;;;;;1.92;1.35;;;;;;;22.06;56.13;100414.81;4974471;28;20201;-69
2023/08/08 09:41:26;;;;;;;2.65;1.38;;;;;;;21.56;57.98;100419.09;4991868;28;20204;-68
2023/08/08 09:43:53;;;;;;;4.47;1.92;;;;;;;21.71;58.62;100421.31;4994114;28;20710;-69
2023/08/08 09:46:20;;;;;;;4.03;1.40;;;;;;;21.68;59.30;100415.16;5010861;28;20690;-69
2023/08/08 09:48:47;;;;;;;3.55;1.60;;;;;;;21.66;59.15;100409.81;4993016;28;20278;-70
2023/08/08 09:51:14;;;;;;;4.38;1.50;;;;;;;21.92;58.45;100408.06;4974470;28;20235;-70
2023/08/08 09:53:42;;;;;;;2.85;1.33;;;;;;;21.93;57.64;100412.53;4998899;28;20216;-67
2023/08/08 09:56:08;;;;;;;3.40;1.60;;;;;;;21.87;57.64;100410.91;5010327;28;20322;-69
2023/08/08 09:58:35;;;;;;;3.20;1.60;;;;;;;21.77;57.61;100391.47;5003519;28;20238;-68
2023/08/08 10:01:04;;;;;;;3.13;1.50;;;;;;;22.37;58.21;100394.88;5005892;23;20229;-71
2023/08/08 10:03:32;;;;;;;1.88;1.30;;;;;;;22.90;55.60;100401.09;4972125;28;20683;-70
2023/08/08 10:05:59;;;;;;;3.28;1.67;;;;;;;23.21;53.92;100406.19;4988861;28;20703;-71
2023/08/08 10:08:25;;;;;;;4.18;1.50;;;;;;;22.80;53.67;100402.31;4991178;28;20208;-70
2023/08/08 10:10:52;;;;;;;4.07;1.33;;;;;;;22.09;56.08;100400.34;4990363;28;20673;-71
2023/08/08 10:13:21;;;;;;;4.57;1.63;;;;;;;22.11;56.93;100396.66;4990553;28;20201;-70
2023/08/08 10:15:47;;;;;;;2.30;1.40;;;;;;;22.17;56.59;100401.84;4987243;28;20212;-71
2023/08/08 10:18:14;;;;;;;4.22;2.00;;;;;;;22.39;56.72;100399.28;4990521;28;20240;-70
2023/08/08 10:20:47;;;;;;;4.10;2.20;;;;;;;22.55;55.10;100406.84;4990044;28;20256;-70
2023/08/08 10:23:18;;;;;;;7.28;5.20;;;;;;;22.56;54.71;100398.69;4989683;28;20666;-70
2023/08/08 10:25:50;;;;;;;4.57;2.83;;;;;;;22.79;53.66;100400.56;4988639;28;20228;-70
2023/08/08 10:28:19;;;;;;;3.40;1.63;;;;;;;22.68;53.91;100400.06;4990352;28;20477;-70
2023/08/08 10:30:56;;;;;;;3.28;1.70;;;;;;;23.37;52.45;100406.50;4990264;28;20220;-72
2023/08/08 10:33:25;;;;;;;5.78;1.80;;;;;;;23.36;50.89;100402.94;4989897;28;20237;-71
2023/08/08 10:36:06;;;;;;;3.65;1.90;;;;;;;23.37;50.91;100398.41;4989110;28;20201;-71
2023/08/08 10:38:43;;;;;;;3.70;1.85;;;;;;;23.53;51.43;100396.84;4990722;28;20232;-70
2023/08/08 10:41:11;;;;;;;2.97;2.00;;;;;;;23.68;49.12;100401.69;4983390;28;20327;-72
2023/08/08 10:43:38;;;;;;;2.72;1.70;;;;;;;24.02;48.56;100393.09;4990553;28;20197;-69
2023/08/08 10:46:04;;;;;;;3.53;1.52;;;;;;;23.41;48.22;100394.63;4982057;28;20253;-69
2023/08/08 10:48:51;;;;;;;4.43;1.60;;;;;;;23.13;50.78;100400.22;4989660;28;20200;-69
2023/08/08 10:51:18;;;;;;;2.03;1.65;;;;;;;23.43;50.00;100400.88;4990158;28;20263;-73
2023/08/08 10:53:45;;;;;;;3.10;1.67;;;;;;;23.38;49.20;100402.88;4990208;28;20207;-70
2023/08/08 10:56:13;;;;;;;2.03;1.60;;;;;;;23.38;48.69;100401.03;4989589;28;20263;-71
2023/08/08 10:58:42;;;;;;;6.40;2.03;;;;;;;23.37;49.28;100402.00;4987404;28;20584;-69
2023/08/08 11:01:09;;;;;;;2.85;1.80;;;;;;;23.06;50.49;100406.78;4989921;28;20240;-71
2023/08/08 11:03:37;;;;;;;3.78;2.17;;;;;;;22.79;50.58;100408.66;4972563;28;20200;-71
2023/08/08 11:06:03;;;;;;;3.08;1.90;;;;;;;23.02;50.44;100419.53;4989459;28;20208;-70
2023/08/08 11:08:31;;;;;;;4.95;1.67;;;;;;;23.19;50.35;100418.00;4988820;28;20196;-72
2023/08/08 11:10:58;;;;;;;3.17;1.65;;;;;;;23.33;50.84;100412.97;4990861;28;20224;-70
2023/08/08 11:13:26;;;;;;;4.72;1.83;;;;;;;23.36;50.15;100413.75;4993847;28;20734;-71
2023/08/08 11:15:52;;;;;;;2.55;1.50;;;;;;;23.13;51.14;100408.31;4993444;28;20284;-70
2023/08/08 11:18:19;;;;;;;3.72;1.60;;;;;;;23.01;51.16;100409.66;4992610;28;20205;-70
2023/08/08 11:20:45;;;;;;;3.25;1.73;;;;;;;22.76;51.59;100412.34;4993452;28;20259;-72